createdAt,value
2022-11-01T00:02:04.940Z,80.22
2022-11-01T00:04:32.755Z,79.84
2022-11-01T00:07:00.569Z,79.68
2022-11-01T00:09:28.324Z,79.78
2022-11-01T00:11:57.459Z,79.26
2022-11-01T00:14:25.536Z,79.10
2022-11-01T00:16:53.342Z,79.00
2022-11-01T00:19:21.303Z,78.89
2022-11-01T00:21:49.247Z,78.17
2022-11-01T00:24:17.173Z,78.64
2022-11-01T00:26:44.991Z,78.16
2022-11-01T00:29:14.526Z,77.85
2022-11-01T00:31:42.297Z,78.20
2022-11-01T00:34:10.114Z,78.05
2022-11-01T00:36:37.899Z,77.81
2022-11-01T00:39:06.657Z,77.69
2022-11-01T00:41:34.869Z,77.73
2022-11-01T00:44:02.703Z,77.71
2022-11-01T00:46:31.916Z,77.17
2022-11-01T00:48:59.896Z,76.86
2022-11-01T00:51:28.058Z,76.59
2022-11-01T00:53:55.823Z,76.90
2022-11-01T00:56:23.600Z,77.00
2022-11-01T00:58:51.337Z,77.53
2022-11-01T01:01:19.230Z,77.57
2022-11-01T01:03:48.508Z,77.76
2022-11-01T01:06:16.285Z,77.69
2022-11-01T01:08:44.203Z,78.43
2022-11-01T01:11:11.982Z,78.31
2022-11-01T01:13:39.746Z,78.63
2022-11-01T01:16:11.408Z,79.09
2022-11-01T01:18:39.430Z,79.72
2022-11-01T01:21:08.659Z,79.55
2022-11-01T01:23:37.138Z,80.05
2022-11-01T01:26:08.160Z,80.02
2022-11-01T01:28:41.629Z,80.13
2022-11-01T01:31:12.780Z,80.24
2022-11-01T01:33:40.651Z,81.04
2022-11-01T01:36:10.079Z,81.11
2022-11-01T01:38:37.901Z,81.02
2022-11-01T01:41:19.831Z,81.23
2022-11-01T01:43:48.066Z,81.60
2022-11-01T01:46:15.825Z,81.91
2022-11-01T01:48:47.326Z,82.45
2022-11-01T01:51:20.875Z,83.51
2022-11-01T01:53:52.437Z,83.39
2022-11-01T01:56:24.214Z,83.81
2022-11-01T01:58:56.604Z,88.09
2022-11-01T02:01:24.481Z,88.06
2022-11-01T02:03:52.848Z,84.09
2022-11-01T02:08:58.863Z,84.58
2022-11-01T02:11:27.026Z,84.91
2022-11-01T02:13:54.920Z,84.66
2022-11-01T02:16:39.455Z,84.96
2022-11-01T02:19:51.797Z,85.39
2022-11-01T02:22:30.837Z,85.32
2022-11-01T02:25:12.855Z,85.69
2022-11-01T02:28:06.778Z,86.14
2022-11-01T02:30:43.163Z,86.24
2022-11-01T02:33:19.956Z,87.00
2022-11-01T02:35:56.567Z,86.83
2022-11-01T02:38:30.558Z,87.61
2022-11-01T02:41:09.791Z,87.87
2022-11-01T02:43:45.611Z,87.79
2022-11-01T02:46:31.325Z,87.82
2022-11-01T02:49:00.399Z,87.95
2022-11-01T02:51:29.428Z,88.22
2022-11-01T02:56:40.414Z,89.15
2022-11-01T02:59:15.555Z,89.18
2022-11-01T03:01:45.871Z,90.28
2022-11-01T03:04:15.222Z,90.39
2022-11-01T03:06:49.517Z,90.35
2022-11-01T03:09:17.283Z,91.09
2022-11-01T03:11:50.872Z,91.52
2022-11-01T03:14:27.053Z,91.52
2022-11-01T03:17:00.366Z,92.02
2022-11-01T03:19:38.920Z,92.05
2022-11-01T03:22:12.138Z,92.35
2022-11-01T03:24:46.910Z,92.42
2022-11-01T03:27:19.586Z,92.12
2022-11-01T03:29:56.286Z,92.39
2022-11-01T03:32:27.775Z,91.56
2022-11-01T03:35:00.290Z,91.24
2022-11-01T03:37:29.951Z,91.21
2022-11-01T03:40:04.082Z,90.75
2022-11-01T03:42:32.994Z,90.37
2022-11-01T03:45:06.863Z,90.26
2022-11-01T03:47:36.331Z,90.19
2022-11-01T03:50:17.934Z,90.24
2022-11-01T03:52:46.277Z,89.67
2022-11-01T03:55:21.011Z,90.13
2022-11-01T03:57:50.550Z,89.99
2022-11-01T04:00:20.961Z,89.93
2022-11-01T04:02:49.388Z,89.92
2022-11-01T04:05:19.192Z,90.32
2022-11-01T04:07:47.443Z,89.79
2022-11-01T04:10:15.706Z,89.54
2022-11-01T04:12:46.198Z,89.60
2022-11-01T04:15:32.080Z,89.28
2022-11-01T04:18:25.911Z,90.01
2022-11-01T04:20:55.261Z,89.69
2022-11-01T04:23:23.369Z,89.94
2022-11-01T04:25:51.115Z,89.70
2022-11-01T04:28:18.859Z,89.16
2022-11-01T04:30:46.827Z,88.99
2022-11-01T04:33:14.822Z,88.58
2022-11-01T04:35:42.542Z,88.80
2022-11-01T04:38:13.050Z,88.41
2022-11-01T04:40:41.207Z,88.49
2022-11-01T04:43:09.199Z,88.67
2022-11-01T04:45:37.176Z,89.17
2022-11-01T04:48:07.062Z,89.12
2022-11-01T04:50:35.675Z,89.14
2022-11-01T04:53:03.982Z,89.25
2022-11-01T04:55:33.759Z,88.88
2022-11-01T04:58:01.521Z,89.54
2022-11-01T05:00:29.257Z,89.32
2022-11-01T05:03:02.799Z,89.34
2022-11-01T05:05:31.431Z,89.38
2022-11-01T05:08:03.490Z,89.13
2022-11-01T05:10:33.108Z,89.27
2022-11-01T05:13:01.438Z,89.15
2022-11-01T05:15:29.567Z,88.83
2022-11-01T05:17:57.707Z,88.73
2022-11-01T05:20:25.878Z,88.54
2022-11-01T05:22:53.599Z,88.76
2022-11-01T05:25:21.362Z,88.22
2022-11-01T05:27:50.438Z,88.16
2022-11-01T05:30:18.369Z,87.67
2022-11-01T05:32:46.071Z,87.68
2022-11-01T05:35:13.819Z,87.54
2022-11-01T05:37:41.516Z,87.74
2022-11-01T05:40:10.712Z,87.66
2022-11-01T05:42:39.901Z,87.77
2022-11-01T05:45:10.476Z,87.91
2022-11-01T05:47:40.287Z,88.23
2022-11-01T05:50:08.985Z,87.96
2022-11-01T05:52:36.825Z,88.42
2022-11-01T05:55:04.898Z,88.20
2022-11-01T05:57:33.659Z,88.74
2022-11-01T06:00:01.640Z,89.10
2022-11-01T06:02:41.318Z,89.00
2022-11-01T06:05:10.056Z,88.99
2022-11-01T06:07:38.040Z,89.25
2022-11-01T06:10:07.008Z,89.30
2022-11-01T06:12:34.773Z,89.80
2022-11-01T06:15:02.539Z,90.23
2022-11-01T06:17:30.268Z,90.24
2022-11-01T06:19:59.651Z,90.45
2022-11-01T06:22:27.381Z,90.94
2022-11-01T06:24:55.148Z,91.09
2022-11-01T06:27:22.885Z,91.27
2022-11-01T06:29:50.629Z,91.54
2022-11-01T06:32:18.331Z,91.54
2022-11-01T06:34:46.137Z,92.06
2022-11-01T06:37:15.273Z,92.50
2022-11-01T06:39:43.030Z,92.87
2022-11-01T06:42:11.211Z,89.92
2022-11-01T06:44:38.920Z,89.75
2022-11-01T06:47:06.679Z,89.22
2022-11-01T06:49:34.687Z,84.77
2022-11-01T06:52:03.196Z,81.97
2022-11-01T06:54:32.573Z,78.34
2022-11-01T06:57:00.295Z,78.24
2022-11-01T06:59:28.019Z,76.85
2022-11-01T07:01:55.904Z,75.94
2022-11-01T07:04:23.975Z,74.56
2022-11-01T07:06:51.681Z,74.02
2022-11-01T07:09:19.519Z,73.10
2022-11-01T07:11:48.627Z,72.87
2022-11-01T07:14:16.367Z,73.72
2022-11-01T07:16:44.167Z,72.88
2022-11-01T07:19:12.009Z,70.93
2022-11-01T07:21:40.143Z,70.55
2022-11-01T07:24:07.990Z,69.09
2022-11-01T07:26:35.737Z,70.25
2022-11-01T07:29:05.037Z,71.54
2022-11-01T07:31:34.409Z,72.96
2022-11-01T07:34:02.131Z,68.40
2022-11-01T07:36:29.906Z,66.69
2022-11-01T07:38:57.854Z,65.58
2022-11-01T07:41:25.687Z,65.49
2022-11-01T07:43:53.958Z,65.08
2022-11-01T07:46:23.303Z,62.86
2022-11-01T07:48:55.073Z,63.08
2022-11-01T07:51:23.027Z,63.17
2022-11-01T07:53:51.120Z,62.93
2022-11-01T07:56:18.904Z,62.87
2022-11-01T07:58:46.656Z,62.09
2022-11-01T08:01:14.624Z,61.65
2022-11-01T08:03:43.817Z,60.54
2022-11-01T08:06:11.604Z,59.61
2022-11-01T08:08:39.594Z,57.93
2022-11-01T08:11:07.339Z,57.28
2022-11-01T08:13:35.276Z,57.81
2022-11-01T08:16:03.434Z,56.26
2022-11-01T08:18:31.193Z,56.62
2022-11-01T08:21:00.546Z,54.95
2022-11-01T08:23:28.455Z,54.94
2022-11-01T08:25:58.498Z,53.52
2022-11-01T08:28:28.442Z,52.88
2022-11-01T08:30:56.209Z,52.44
2022-11-01T08:33:23.951Z,52.19
2022-11-01T08:35:51.706Z,51.77
2022-11-01T08:38:20.949Z,51.48
2022-11-01T08:40:49.062Z,51.94
2022-11-01T08:43:17.204Z,51.67
2022-11-01T08:45:45.254Z,51.69
2022-11-01T08:48:13.319Z,50.50
2022-11-01T08:50:41.065Z,51.08
2022-11-01T08:53:11.025Z,49.82
2022-11-01T08:55:40.394Z,50.44
2022-11-01T08:58:09.464Z,49.00
2022-11-01T09:00:37.824Z,48.85
2022-11-01T09:03:05.867Z,49.08
2022-11-01T09:05:34.356Z,50.02
2022-11-01T09:08:02.890Z,49.46
2022-11-01T09:10:32.123Z,49.10
2022-11-01T09:13:02.951Z,48.28
2022-11-01T09:15:31.429Z,48.58
2022-11-01T09:17:59.427Z,48.16
2022-11-01T09:20:28.235Z,46.42
2022-11-01T09:22:56.062Z,47.20
2022-11-01T09:25:23.857Z,47.72
2022-11-01T09:27:51.608Z,46.91
2022-11-01T09:30:21.399Z,46.09
2022-11-01T09:32:49.171Z,46.80
2022-11-01T09:35:18.001Z,47.23
2022-11-01T09:37:45.787Z,46.70
2022-11-01T09:40:15.282Z,45.50
2022-11-01T09:42:45.238Z,45.00
2022-11-01T09:45:19.254Z,44.60
2022-11-01T09:47:53.123Z,44.40
2022-11-01T09:50:24.887Z,44.51
2022-11-01T09:52:54.891Z,45.82
2022-11-01T09:55:35.249Z,44.78
2022-11-01T09:58:08.811Z,45.55
2022-11-01T10:00:43.671Z,46.30
2022-11-01T10:03:39.149Z,45.68
2022-11-01T10:06:16.211Z,46.45
2022-11-01T10:08:54.881Z,46.46
2022-11-01T10:11:58.270Z,47.70
2022-11-01T10:14:47.723Z,47.08
2022-11-01T10:17:17.706Z,45.81
2022-11-01T10:19:50.116Z,44.29
2022-11-01T10:22:20.166Z,44.59
2022-11-01T10:24:53.574Z,44.78
2022-11-01T10:27:26.557Z,44.05
2022-11-01T10:30:00.093Z,43.90
2022-11-01T10:32:36.078Z,44.14
2022-11-01T10:35:12.019Z,43.40
2022-11-01T10:37:57.396Z,41.08
2022-11-01T10:40:39.011Z,40.60
2022-11-01T10:43:14.367Z,41.27
2022-11-01T10:45:47.463Z,41.79
2022-11-01T10:48:22.962Z,41.97
2022-11-01T10:50:53.395Z,40.85
2022-11-01T10:53:22.405Z,40.04
2022-11-01T10:55:53.456Z,40.68
2022-11-01T10:58:31.841Z,40.54
2022-11-01T11:01:01.010Z,39.18
2022-11-01T11:03:31.297Z,39.88
2022-11-01T11:06:04.785Z,40.08
2022-11-01T11:08:33.975Z,39.09
2022-11-01T11:11:08.898Z,39.70
2022-11-01T11:13:36.690Z,38.98
2022-11-01T11:16:05.987Z,38.92
2022-11-01T11:18:37.548Z,37.93
2022-11-01T11:21:08.942Z,37.20
2022-11-01T11:23:44.209Z,37.48
2022-11-01T11:26:16.831Z,38.20
2022-11-01T11:28:49.930Z,38.33
2022-11-01T11:31:24.306Z,38.91
2022-11-01T11:33:55.794Z,37.36
2022-11-01T11:36:32.659Z,36.79
2022-11-01T11:39:00.976Z,37.64
2022-11-01T11:41:31.722Z,36.76
2022-11-01T11:44:00.051Z,37.18
2022-11-01T11:46:28.209Z,36.20
2022-11-01T11:48:59.147Z,37.04
2022-11-01T11:51:30.663Z,37.13
2022-11-01T11:54:32.080Z,37.17
2022-11-01T11:57:11.596Z,37.85
2022-11-01T11:59:42.033Z,37.86
2022-11-01T12:02:19.712Z,37.37
2022-11-01T12:04:53.075Z,37.37
2022-11-01T12:07:33.673Z,37.13
2022-11-01T12:10:03.619Z,37.09
2022-11-01T12:12:32.897Z,36.62
2022-11-01T12:15:03.182Z,37.11
2022-11-01T12:17:36.895Z,37.55
2022-11-01T12:20:15.939Z,37.81
2022-11-01T12:22:49.530Z,37.00
2022-11-01T12:25:21.327Z,37.92
2022-11-01T12:27:54.789Z,37.81
2022-11-01T12:30:24.628Z,37.02
2022-11-01T12:32:54.783Z,36.65
2022-11-01T12:35:27.773Z,38.38
2022-11-01T12:38:07.298Z,37.04
2022-11-01T12:40:38.400Z,36.70
2022-11-01T12:43:15.379Z,36.92
2022-11-01T12:45:51.105Z,36.74
2022-11-01T12:48:28.092Z,37.47
2022-11-01T12:50:59.994Z,38.69
2022-11-01T12:53:35.017Z,38.57
2022-11-01T12:56:02.768Z,38.62
2022-11-01T12:58:33.759Z,38.73
2022-11-01T13:01:23.031Z,38.66
2022-11-01T13:04:05.638Z,38.46
2022-11-01T13:06:53.534Z,38.52
2022-11-01T13:09:30.795Z,38.41
2022-11-01T13:12:07.996Z,38.50
2022-11-01T13:14:50.245Z,38.20
2022-11-01T13:17:28.107Z,38.95
2022-11-01T13:20:05.379Z,37.54
2022-11-01T13:22:42.297Z,37.53
2022-11-01T13:25:20.509Z,37.34
2022-11-01T13:28:05.421Z,38.33
2022-11-01T13:30:38.537Z,37.84
2022-11-01T13:33:17.651Z,37.74
2022-11-01T13:35:52.180Z,37.67
2022-11-01T13:38:32.350Z,37.77
2022-11-01T13:41:10.165Z,37.51
2022-11-01T13:43:43.292Z,39.92
2022-11-01T13:46:31.039Z,38.91
2022-11-01T13:49:20.071Z,38.80
2022-11-01T13:51:55.127Z,39.56
2022-11-01T13:54:28.495Z,39.96
2022-11-01T13:57:02.088Z,39.70
2022-11-01T13:59:33.093Z,41.01
2022-11-01T14:02:36.085Z,40.85
2022-11-01T14:05:08.416Z,41.04
2022-11-01T14:07:37.695Z,41.58
2022-11-01T14:10:11.954Z,42.12
2022-11-01T14:12:46.676Z,42.36
2022-11-01T14:15:26.915Z,42.14
2022-11-01T14:18:08.307Z,43.47
2022-11-01T14:20:47.992Z,42.58
2022-11-01T14:23:50.967Z,42.46
2022-11-01T14:26:38.476Z,42.67
2022-11-01T14:29:12.298Z,43.41
2022-11-01T14:31:43.650Z,43.16
2022-11-01T14:34:24.326Z,43.64
2022-11-01T14:36:54.882Z,43.89
2022-11-01T14:39:27.369Z,44.26
2022-11-01T14:41:57.594Z,43.94
2022-11-01T14:44:33.459Z,44.65
2022-11-01T14:47:06.856Z,44.68
2022-11-01T14:49:40.671Z,44.75
2022-11-01T14:52:12.653Z,44.81
2022-11-01T14:54:46.679Z,45.04
2022-11-01T14:57:25.769Z,44.65
2022-11-01T14:59:55.538Z,44.95
2022-11-01T15:02:25.435Z,45.77
2022-11-01T15:04:59.109Z,46.47
2022-11-01T15:07:30.903Z,46.50
2022-11-01T15:10:01.314Z,46.20
2022-11-01T15:12:34.428Z,47.11
2022-11-01T15:15:04.588Z,46.77
2022-11-01T15:17:35.222Z,47.21
2022-11-01T15:20:12.959Z,47.23
2022-11-01T15:22:42.496Z,47.58
2022-11-01T15:25:21.770Z,47.72
2022-11-01T15:27:51.134Z,47.87
2022-11-01T15:30:26.392Z,48.47
2022-11-01T15:33:14.223Z,48.81
2022-11-01T15:35:42.870Z,49.17
2022-11-01T15:38:20.878Z,48.88
2022-11-01T15:40:50.193Z,49.40
2022-11-01T15:43:20.191Z,50.19
2022-11-01T15:45:53.723Z,51.02
2022-11-01T15:48:24.668Z,50.71
2022-11-01T15:50:57.357Z,51.15
2022-11-01T15:53:27.812Z,51.81
2022-11-01T15:56:01.098Z,51.80
2022-11-01T15:58:35.059Z,51.95
2022-11-01T16:01:13.044Z,51.87
2022-11-01T16:03:45.832Z,52.08
2022-11-01T16:06:17.913Z,52.03
2022-11-01T16:08:50.768Z,53.22
2022-11-01T16:11:20.826Z,53.06
2022-11-01T16:13:50.898Z,53.19
2022-11-01T16:16:20.691Z,53.17
2022-11-01T16:18:48.577Z,53.45
2022-11-01T16:21:28.592Z,53.34
2022-11-01T16:24:02.814Z,53.50
2022-11-01T16:26:33.296Z,53.48
2022-11-01T16:29:01.456Z,53.88
2022-11-01T16:31:33.344Z,54.08
2022-11-01T16:34:01.202Z,54.72
2022-11-01T16:36:37.996Z,54.90
2022-11-01T16:39:25.667Z,55.06
2022-11-01T16:41:53.846Z,55.55
2022-11-01T16:44:22.131Z,55.78
2022-11-01T16:46:51.736Z,55.85
2022-11-01T16:49:22.702Z,56.55
2022-11-01T16:51:51.213Z,56.50
2022-11-01T16:54:19.181Z,56.93
2022-11-01T16:56:49.464Z,57.77
2022-11-01T16:59:26.374Z,57.98
2022-11-01T17:01:58.341Z,58.12
2022-11-01T17:04:27.886Z,58.76
2022-11-01T17:06:58.048Z,58.66
2022-11-01T17:09:26.815Z,59.44
2022-11-01T17:11:54.519Z,60.09
2022-11-01T17:14:22.687Z,60.21
2022-11-01T17:16:52.421Z,60.08
2022-11-01T17:19:28.738Z,60.45
2022-11-01T17:21:59.511Z,61.06
2022-11-01T17:24:28.384Z,60.86
2022-11-01T17:26:59.991Z,61.07
2022-11-01T17:29:27.734Z,61.51
2022-11-01T17:31:55.853Z,61.63
2022-11-01T17:34:26.582Z,61.93
2022-11-01T17:36:54.524Z,62.09
2022-11-01T17:39:22.589Z,61.96
2022-11-01T17:41:50.338Z,62.04
2022-11-01T17:44:18.337Z,62.52
2022-11-01T17:46:46.034Z,62.33
2022-11-01T17:49:16.160Z,62.38
2022-11-01T17:51:45.228Z,62.65
2022-11-01T17:54:13.001Z,63.00
2022-11-01T17:56:41.182Z,63.09
2022-11-01T17:59:09.125Z,63.11
2022-11-01T18:01:38.716Z,62.84
2022-11-01T18:04:07.317Z,63.61
2022-11-01T18:06:35.270Z,63.43
2022-11-01T18:09:18.123Z,64.13
2022-11-01T18:11:52.801Z,64.39
2022-11-01T18:14:28.297Z,64.68
2022-11-01T18:16:57.753Z,65.07
2022-11-01T18:19:49.099Z,64.85
2022-11-01T18:22:25.526Z,64.72
2022-11-01T18:25:00.060Z,65.13
2022-11-01T18:27:34.936Z,64.89
2022-11-01T18:30:09.791Z,65.09
2022-11-01T18:32:41.936Z,65.05
2022-11-01T18:35:23.259Z,65.47
2022-11-01T18:38:10.155Z,65.77
2022-11-01T18:40:48.831Z,65.89
2022-11-01T18:43:17.559Z,65.84
2022-11-01T18:46:18.762Z,66.14
2022-11-01T18:48:34.675Z,66.03
2022-11-01T18:51:05.756Z,66.94
2022-11-01T18:53:35.099Z,67.25
2022-11-01T18:56:21.090Z,67.13
2022-11-01T18:58:50.223Z,67.85
2022-11-01T19:01:20.354Z,67.88
2022-11-01T19:03:55.606Z,68.65
2022-11-01T19:06:23.758Z,68.47
2022-11-01T19:08:55.206Z,68.41
2022-11-01T19:11:26.315Z,68.84
2022-11-01T19:13:55.720Z,68.26
2022-11-01T19:16:23.580Z,68.44
2022-11-01T19:18:52.314Z,68.81
2022-11-01T19:21:21.395Z,69.29
2022-11-01T19:23:51.042Z,69.01
2022-11-01T19:26:26.740Z,69.16
2022-11-01T19:28:55.031Z,69.32
2022-11-01T19:31:27.046Z,69.15
2022-11-01T19:33:57.398Z,69.36
2022-11-01T19:36:32.657Z,69.43
2022-11-01T19:39:01.000Z,69.46
2022-11-01T19:41:35.386Z,69.94
2022-11-01T19:44:11.833Z,69.68
2022-11-01T19:46:39.670Z,69.88
2022-11-01T19:49:20.907Z,70.02
2022-11-01T19:51:54.181Z,70.54
2022-11-01T19:54:21.960Z,70.85
2022-11-01T19:56:51.301Z,71.04
2022-11-01T19:59:20.428Z,71.32
2022-11-01T20:01:48.398Z,71.11
2022-11-01T20:04:27.203Z,71.44
2022-11-01T20:06:59.601Z,71.33
2022-11-01T20:09:30.131Z,71.80
2022-11-01T20:11:59.230Z,71.74
2022-11-01T20:14:27.540Z,71.57
2022-11-01T20:16:55.338Z,72.44
2022-11-01T20:19:23.226Z,72.21
2022-11-01T20:21:50.999Z,72.99
2022-11-01T20:24:18.748Z,73.20
2022-11-01T20:26:46.546Z,73.95
2022-11-01T20:29:15.862Z,73.74
2022-11-01T20:31:43.904Z,74.20
2022-11-01T20:34:11.804Z,74.08
2022-11-01T20:36:39.521Z,74.31
2022-11-01T20:39:09.163Z,74.52
2022-11-01T20:41:39.545Z,74.76
2022-11-01T20:44:07.270Z,74.92
2022-11-01T20:46:36.730Z,74.94
2022-11-01T20:49:04.476Z,75.31
2022-11-01T20:51:32.591Z,75.10
2022-11-01T20:54:00.284Z,75.51
2022-11-01T20:56:28.209Z,75.70
2022-11-01T20:58:55.954Z,75.63
2022-11-01T21:01:23.707Z,76.31
2022-11-01T21:03:55.241Z,75.99
2022-11-01T21:06:25.011Z,76.21
2022-11-01T21:08:52.824Z,75.96
2022-11-01T21:11:23.424Z,76.26
2022-11-01T21:13:52.500Z,76.11
2022-11-01T21:16:25.422Z,76.78
2022-11-01T21:18:59.841Z,76.82
2022-11-01T21:21:45.483Z,76.58
2022-11-01T21:24:32.405Z,76.90
2022-11-01T21:27:20.764Z,76.70
2022-11-01T21:29:49.810Z,77.50
2022-11-01T21:32:30.106Z,77.14
2022-11-01T21:34:59.401Z,77.53
2022-11-01T21:37:29.583Z,77.84
2022-11-01T21:40:05.739Z,77.85
2022-11-01T21:42:37.200Z,77.93
2022-11-01T21:45:27.593Z,78.52
2022-11-01T21:47:56.787Z,79.09
2022-11-01T21:50:25.891Z,79.18
2022-11-01T21:52:53.655Z,79.37
2022-11-01T21:55:21.574Z,79.78
2022-11-01T21:57:49.343Z,80.31
2022-11-01T22:00:17.351Z,79.60
2022-11-01T22:02:45.162Z,80.00
2022-11-01T22:05:13.082Z,80.19
2022-11-01T22:07:42.183Z,79.72
2022-11-01T22:10:10.730Z,79.49
2022-11-01T22:12:38.500Z,79.00
2022-11-01T22:15:07.438Z,78.40
2022-11-01T22:17:35.157Z,78.42
2022-11-01T22:20:03.197Z,78.32
2022-11-01T22:22:30.954Z,78.26
2022-11-01T22:25:00.310Z,78.11
2022-11-01T22:27:28.076Z,78.46
2022-11-01T22:29:55.823Z,77.88
2022-11-01T22:32:23.494Z,78.14
2022-11-01T22:34:51.466Z,78.21
2022-11-01T22:37:19.167Z,78.65
2022-11-01T22:39:52.862Z,78.60
2022-11-01T22:42:23.143Z,78.67
2022-11-01T22:44:51.680Z,78.50
2022-11-01T22:47:25.469Z,78.14
2022-11-01T22:49:55.473Z,77.86
2022-11-01T22:52:31.365Z,78.10
2022-11-01T22:55:05.139Z,78.14
2022-11-01T22:57:37.501Z,78.52
2022-11-01T23:00:27.405Z,78.03
2022-11-01T23:03:01.797Z,77.91
2022-11-01T23:05:30.025Z,77.66
2022-11-01T23:08:01.598Z,77.54
2022-11-01T23:10:31.698Z,77.49
2022-11-01T23:13:25.811Z,77.49
2022-11-01T23:16:01.710Z,77.70
2022-11-01T23:18:32.945Z,77.08
2022-11-01T23:21:02.961Z,77.22
2022-11-01T23:23:30.695Z,75.98
2022-11-01T23:26:02.021Z,75.66
2022-11-01T23:28:35.406Z,75.58
2022-11-01T23:31:04.584Z,75.09
2022-11-01T23:33:36.946Z,74.60
2022-11-01T23:36:05.319Z,74.16
2022-11-01T23:38:36.708Z,73.51
2022-11-01T23:41:05.074Z,73.49
2022-11-01T23:43:38.384Z,72.89
2022-11-01T23:46:07.667Z,72.88
2022-11-01T23:48:41.477Z,71.98
2022-11-01T23:51:15.358Z,72.08
2022-11-01T23:53:45.151Z,72.29
2022-11-01T23:56:15.528Z,72.07
2022-11-01T23:58:45.033Z,72.45
